sensor_id;sensor_type;location;lat;lon;timestamp;temperature;humidity
25280;DHT22;13225;47.804;12.116;2023-08-06T00:00:38;14.90;99.90
25280;DHT22;13225;47.804;12.116;2023-08-06T00:03:04;14.90;99.90
25280;DHT22;13225;47.804;12.116;2023-08-06T00:05:29;14.80;99.90
25280;DHT22;13225;47.804;12.116;2023-08-06T00:07:55;14.90;99.90
25280;DHT22;13225;47.804;12.116;2023-08-06T00:10:21;14.90;99.90
25280;DHT22;13225;47.804;12.116;2023-08-06T00:12:46;14.80;99.90
25280;DHT22;13225;47.804;12.116;2023-08-06T00:15:12;14.80;99.90
25280;DHT22;13225;47.804;12.116;2023-08-06T00:17:38;14.90;99.90
25280;DHT22;13225;47.804;12.116;2023-08-06T00:20:05;14.90;99.90
25280;DHT22;13225;47.804;12.116;2023-08-06T00:22:36;14.80;99.90
25280;DHT22;13225;47.804;12.116;2023-08-06T00:25:03;14.80;99.90
25280;DHT22;13225;47.804;12.116;2023-08-06T00:27:29;14.80;99.90
25280;DHT22;13225;47.804;12.116;2023-08-06T00:29:55;14.80;99.90
25280;DHT22;13225;47.804;12.116;2023-08-06T00:32:21;14.90;99.90
25280;DHT22;13225;47.804;12.116;2023-08-06T00:34:47;14.80;99.90
25280;DHT22;13225;47.804;12.116;2023-08-06T00:37:15;14.80;99.90
25280;DHT22;13225;47.804;12.116;2023-08-06T00:39:41;14.80;99.90
25280;DHT22;13225;47.804;12.116;2023-08-06T00:42:07;14.80;99.90
25280;DHT22;13225;47.804;12.116;2023-08-06T00:44:32;14.80;99.90
25280;DHT22;13225;47.804;12.116;2023-08-06T00:46:58;14.80;99.90
25280;DHT22;13225;47.804;12.116;2023-08-06T00:49:24;14.80;99.90
25280;DHT22;13225;47.804;12.116;2023-08-06T00:51:50;14.70;99.90
25280;DHT22;13225;47.804;12.116;2023-08-06T00:54:16;14.80;99.90
25280;DHT22;13225;47.804;12.116;2023-08-06T00:56:42;14.80;99.90
25280;DHT22;13225;47.804;12.116;2023-08-06T00:59:09;14.70;99.90
25280;DHT22;13225;47.804;12.116;2023-08-06T01:01:36;14.60;99.90
25280;DHT22;13225;47.804;12.116;2023-08-06T01:04:01;14.70;99.90
25280;DHT22;13225;47.804;12.116;2023-08-06T01:06:47;14.70;99.90
25280;DHT22;13225;47.804;12.116;2023-08-06T01:13:27;14.60;99.90
25280;DHT22;13225;47.804;12.116;2023-08-06T01:15:22;14.50;99.90
25280;DHT22;13225;47.804;12.116;2023-08-06T01:17:49;14.60;99.90
25280;DHT22;13225;47.804;12.116;2023-08-06T01:20:15;14.50;99.90
25280;DHT22;13225;47.804;12.116;2023-08-06T01:22:40;14.60;99.90
25280;DHT22;13225;47.804;12.116;2023-08-06T01:25:07;14.60;99.90
25280;DHT22;13225;47.804;12.116;2023-08-06T01:27:47;14.60;99.90
25280;DHT22;13225;47.804;12.116;2023-08-06T01:30:17;14.60;99.90
25280;DHT22;13225;47.804;12.116;2023-08-06T01:32:46;14.60;99.90
25280;DHT22;13225;47.804;12.116;2023-08-06T01:35:15;14.50;99.90
25280;DHT22;13225;47.804;12.116;2023-08-06T01:37:42;14.60;99.90
25280;DHT22;13225;47.804;12.116;2023-08-06T01:40:12;14.50;99.90
25280;DHT22;13225;47.804;12.116;2023-08-06T01:42:38;14.60;99.90
25280;DHT22;13225;47.804;12.116;2023-08-06T01:45:05;14.50;99.90
25280;DHT22;13225;47.804;12.116;2023-08-06T01:47:31;14.50;99.90
25280;DHT22;13225;47.804;12.116;2023-08-06T01:49:56;14.50;99.90
25280;DHT22;13225;47.804;12.116;2023-08-06T01:52:22;14.50;99.90
25280;DHT22;13225;47.804;12.116;2023-08-06T01:54:47;14.50;99.90
25280;DHT22;13225;47.804;12.116;2023-08-06T01:57:13;14.50;99.90
25280;DHT22;13225;47.804;12.116;2023-08-06T01:59:38;14.50;99.90
25280;DHT22;13225;47.804;12.116;2023-08-06T02:02:04;14.50;99.90
25280;DHT22;13225;47.804;12.116;2023-08-06T02:04:30;14.50;99.90
25280;DHT22;13225;47.804;12.116;2023-08-06T02:06:55;14.50;99.90
25280;DHT22;13225;47.804;12.116;2023-08-06T02:09:21;14.50;99.90
25280;DHT22;13225;47.804;12.116;2023-08-06T02:11:46;14.50;99.90
25280;DHT22;13225;47.804;12.116;2023-08-06T02:14:12;14.50;99.90
25280;DHT22;13225;47.804;12.116;2023-08-06T02:16:38;14.50;99.90
25280;DHT22;13225;47.804;12.116;2023-08-06T02:19:03;14.50;99.90
25280;DHT22;13225;47.804;12.116;2023-08-06T02:21:29;14.50;99.90
25280;DHT22;13225;47.804;12.116;2023-08-06T02:23:55;14.50;99.90
25280;DHT22;13225;47.804;12.116;2023-08-06T02:26:20;14.40;99.90
25280;DHT22;13225;47.804;12.116;2023-08-06T02:28:46;14.30;99.90
25280;DHT22;13225;47.804;12.116;2023-08-06T02:31:12;14.30;99.90
25280;DHT22;13225;47.804;12.116;2023-08-06T02:33:37;14.30;99.90
25280;DHT22;13225;47.804;12.116;2023-08-06T02:36:03;14.30;99.90
25280;DHT22;13225;47.804;12.116;2023-08-06T02:38:30;14.20;99.90
25280;DHT22;13225;47.804;12.116;2023-08-06T02:40:55;14.20;99.90
25280;DHT22;13225;47.804;12.116;2023-08-06T02:43:21;14.20;99.90
25280;DHT22;13225;47.804;12.116;2023-08-06T02:45:46;14.20;99.90
25280;DHT22;13225;47.804;12.116;2023-08-06T02:48:12;14.20;99.90
25280;DHT22;13225;47.804;12.116;2023-08-06T02:50:39;14.10;99.90
25280;DHT22;13225;47.804;12.116;2023-08-06T02:53:06;14.10;99.90
25280;DHT22;13225;47.804;12.116;2023-08-06T02:55:32;14.10;99.90
25280;DHT22;13225;47.804;12.116;2023-08-06T02:57:59;14.10;99.90
25280;DHT22;13225;47.804;12.116;2023-08-06T03:00:25;14.10;99.90
25280;DHT22;13225;47.804;12.116;2023-08-06T03:02:51;14.10;99.90
25280;DHT22;13225;47.804;12.116;2023-08-06T03:05:16;14.00;99.90
25280;DHT22;13225;47.804;12.116;2023-08-06T03:07:42;14.00;99.90
25280;DHT22;13225;47.804;12.116;2023-08-06T03:10:07;14.00;99.90
25280;DHT22;13225;47.804;12.116;2023-08-06T03:12:33;14.00;99.90
25280;DHT22;13225;47.804;12.116;2023-08-06T03:14:59;14.10;99.90
25280;DHT22;13225;47.804;12.116;2023-08-06T03:17:24;14.10;99.90
25280;DHT22;13225;47.804;12.116;2023-08-06T03:19:50;14.10;99.90
25280;DHT22;13225;47.804;12.116;2023-08-06T03:22:15;14.00;99.90
25280;DHT22;13225;47.804;12.116;2023-08-06T03:24:41;13.90;99.90
25280;DHT22;13225;47.804;12.116;2023-08-06T03:27:06;13.90;99.90
25280;DHT22;13225;47.804;12.116;2023-08-06T03:29:32;13.90;99.90
25280;DHT22;13225;47.804;12.116;2023-08-06T03:31:57;13.90;99.90
25280;DHT22;13225;47.804;12.116;2023-08-06T03:34:23;13.90;99.90
25280;DHT22;13225;47.804;12.116;2023-08-06T03:36:48;13.90;99.90
25280;DHT22;13225;47.804;12.116;2023-08-06T03:39:14;13.90;99.90
25280;DHT22;13225;47.804;12.116;2023-08-06T03:41:40;13.80;99.90
25280;DHT22;13225;47.804;12.116;2023-08-06T03:44:05;13.80;99.90
25280;DHT22;13225;47.804;12.116;2023-08-06T03:46:31;13.80;99.90
25280;DHT22;13225;47.804;12.116;2023-08-06T03:49:02;13.80;99.90
25280;DHT22;13225;47.804;12.116;2023-08-06T03:51:28;13.70;99.90
25280;DHT22;13225;47.804;12.116;2023-08-06T03:53:54;13.70;99.90
25280;DHT22;13225;47.804;12.116;2023-08-06T03:56:19;13.70;99.90
25280;DHT22;13225;47.804;12.116;2023-08-06T03:58:45;13.70;99.90
25280;DHT22;13225;47.804;12.116;2023-08-06T04:01:10;13.70;99.90
25280;DHT22;13225;47.804;12.116;2023-08-06T04:03:36;13.70;99.90
25280;DHT22;13225;47.804;12.116;2023-08-06T04:06:02;13.60;99.90
25280;DHT22;13225;47.804;12.116;2023-08-06T04:08:28;13.60;99.90
25280;DHT22;13225;47.804;12.116;2023-08-06T04:10:54;13.60;99.90
25280;DHT22;13225;47.804;12.116;2023-08-06T04:13:20;13.60;99.90
25280;DHT22;13225;47.804;12.116;2023-08-06T04:15:46;13.60;99.90
25280;DHT22;13225;47.804;12.116;2023-08-06T04:18:11;13.60;99.90
25280;DHT22;13225;47.804;12.116;2023-08-06T04:20:46;13.50;99.90
25280;DHT22;13225;47.804;12.116;2023-08-06T04:23:13;13.50;99.90
25280;DHT22;13225;47.804;12.116;2023-08-06T04:25:38;13.50;99.90
25280;DHT22;13225;47.804;12.116;2023-08-06T04:28:04;13.60;99.90
25280;DHT22;13225;47.804;12.116;2023-08-06T04:30:30;13.60;99.90
25280;DHT22;13225;47.804;12.116;2023-08-06T04:32:57;13.70;99.90
25280;DHT22;13225;47.804;12.116;2023-08-06T04:35:23;13.90;99.90
25280;DHT22;13225;47.804;12.116;2023-08-06T04:37:49;14.20;99.90
25280;DHT22;13225;47.804;12.116;2023-08-06T04:40:15;14.20;99.90
25280;DHT22;13225;47.804;12.116;2023-08-06T04:42:41;14.20;99.90
25280;DHT22;13225;47.804;12.116;2023-08-06T04:45:07;14.20;99.90
25280;DHT22;13225;47.804;12.116;2023-08-06T04:47:32;14.20;99.90
25280;DHT22;13225;47.804;12.116;2023-08-06T04:49:58;14.30;99.90
25280;DHT22;13225;47.804;12.116;2023-08-06T04:52:23;14.30;99.90
25280;DHT22;13225;47.804;12.116;2023-08-06T04:54:53;14.30;99.90
25280;DHT22;13225;47.804;12.116;2023-08-06T04:57:18;14.30;99.90
25280;DHT22;13225;47.804;12.116;2023-08-06T04:59:44;14.40;99.90
25280;DHT22;13225;47.804;12.116;2023-08-06T05:02:09;14.50;99.90
25280;DHT22;13225;47.804;12.116;2023-08-06T05:04:35;14.50;99.90
25280;DHT22;13225;47.804;12.116;2023-08-06T05:07:00;14.50;99.90
25280;DHT22;13225;47.804;12.116;2023-08-06T05:09:26;14.50;99.90
25280;DHT22;13225;47.804;12.116;2023-08-06T05:11:51;14.50;99.90
25280;DHT22;13225;47.804;12.116;2023-08-06T05:14:17;14.60;99.90
25280;DHT22;13225;47.804;12.116;2023-08-06T05:16:42;14.70;99.90
25280;DHT22;13225;47.804;12.116;2023-08-06T05:19:08;14.80;99.90
25280;DHT22;13225;47.804;12.116;2023-08-06T05:21:34;14.90;99.90
25280;DHT22;13225;47.804;12.116;2023-08-06T05:23:59;15.00;99.90
25280;DHT22;13225;47.804;12.116;2023-08-06T05:26:25;15.10;99.90
25280;DHT22;13225;47.804;12.116;2023-08-06T05:28:50;15.20;99.90
25280;DHT22;13225;47.804;12.116;2023-08-06T05:31:16;15.30;99.90
25280;DHT22;13225;47.804;12.116;2023-08-06T05:33:41;15.40;99.90
25280;DHT22;13225;47.804;12.116;2023-08-06T05:36:07;15.40;99.90
25280;DHT22;13225;47.804;12.116;2023-08-06T05:38:32;15.50;99.90
25280;DHT22;13225;47.804;12.116;2023-08-06T05:40:58;15.50;99.90
25280;DHT22;13225;47.804;12.116;2023-08-06T05:43:24;15.50;99.90
25280;DHT22;13225;47.804;12.116;2023-08-06T05:45:49;15.60;99.90
25280;DHT22;13225;47.804;12.116;2023-08-06T05:48:15;15.60;99.90
25280;DHT22;13225;47.804;12.116;2023-08-06T05:50:41;15.50;99.90
25280;DHT22;13225;47.804;12.116;2023-08-06T05:53:07;15.50;99.90
25280;DHT22;13225;47.804;12.116;2023-08-06T05:55:33;15.50;99.90
25280;DHT22;13225;47.804;12.116;2023-08-06T05:57:58;15.40;99.90
25280;DHT22;13225;47.804;12.116;2023-08-06T06:00:24;15.40;99.90
25280;DHT22;13225;47.804;12.116;2023-08-06T06:02:50;15.50;99.90
25280;DHT22;13225;47.804;12.116;2023-08-06T06:05:15;15.70;99.90
25280;DHT22;13225;47.804;12.116;2023-08-06T06:07:41;15.70;99.90
25280;DHT22;13225;47.804;12.116;2023-08-06T06:10:07;15.90;99.90
25280;DHT22;13225;47.804;12.116;2023-08-06T06:12:33;16.00;99.90
25280;DHT22;13225;47.804;12.116;2023-08-06T06:14:58;16.00;99.90
25280;DHT22;13225;47.804;12.116;2023-08-06T06:17:26;16.20;99.90
25280;DHT22;13225;47.804;12.116;2023-08-06T06:19:52;16.20;99.90
25280;DHT22;13225;47.804;12.116;2023-08-06T06:22:17;16.30;99.90
25280;DHT22;13225;47.804;12.116;2023-08-06T06:24:43;16.30;99.90
25280;DHT22;13225;47.804;12.116;2023-08-06T06:27:08;16.40;99.90
25280;DHT22;13225;47.804;12.116;2023-08-06T06:29:34;16.40;99.90
25280;DHT22;13225;47.804;12.116;2023-08-06T06:32:00;16.40;99.90
25280;DHT22;13225;47.804;12.116;2023-08-06T06:34:25;16.40;99.90
25280;DHT22;13225;47.804;12.116;2023-08-06T06:36:51;16.30;99.90
25280;DHT22;13225;47.804;12.116;2023-08-06T06:39:17;16.40;99.90
25280;DHT22;13225;47.804;12.116;2023-08-06T06:41:43;16.40;99.90
25280;DHT22;13225;47.804;12.116;2023-08-06T06:44:09;16.40;99.90
25280;DHT22;13225;47.804;12.116;2023-08-06T06:46:35;16.50;99.90
25280;DHT22;13225;47.804;12.116;2023-08-06T06:49:01;16.50;99.90
25280;DHT22;13225;47.804;12.116;2023-08-06T06:51:27;16.60;99.90
25280;DHT22;13225;47.804;12.116;2023-08-06T06:53:52;16.60;99.90
25280;DHT22;13225;47.804;12.116;2023-08-06T06:56:18;16.60;99.90
25280;DHT22;13225;47.804;12.116;2023-08-06T06:58:43;16.60;99.90
25280;DHT22;13225;47.804;12.116;2023-08-06T07:01:09;16.50;99.90
25280;DHT22;13225;47.804;12.116;2023-08-06T07:03:37;16.70;99.90
25280;DHT22;13225;47.804;12.116;2023-08-06T07:06:02;16.70;99.90
25280;DHT22;13225;47.804;12.116;2023-08-06T07:08:29;16.80;99.90
25280;DHT22;13225;47.804;12.116;2023-08-06T07:11:05;17.00;99.90
25280;DHT22;13225;47.804;12.116;2023-08-06T07:13:32;17.20;99.90
25280;DHT22;13225;47.804;12.116;2023-08-06T07:15:58;17.30;99.90
25280;DHT22;13225;47.804;12.116;2023-08-06T07:18:24;17.40;99.90
25280;DHT22;13225;47.804;12.116;2023-08-06T07:20:50;17.40;99.90
25280;DHT22;13225;47.804;12.116;2023-08-06T07:23:17;17.30;99.90
25280;DHT22;13225;47.804;12.116;2023-08-06T07:25:42;17.30;99.90
25280;DHT22;13225;47.804;12.116;2023-08-06T07:28:09;17.30;99.90
25280;DHT22;13225;47.804;12.116;2023-08-06T07:30:38;17.30;99.90
25280;DHT22;13225;47.804;12.116;2023-08-06T07:33:04;17.30;99.90
25280;DHT22;13225;47.804;12.116;2023-08-06T07:35:29;17.20;99.90
25280;DHT22;13225;47.804;12.116;2023-08-06T07:37:55;17.20;99.90
25280;DHT22;13225;47.804;12.116;2023-08-06T07:40:20;17.20;99.90
25280;DHT22;13225;47.804;12.116;2023-08-06T07:42:46;17.30;99.90
25280;DHT22;13225;47.804;12.116;2023-08-06T07:45:12;17.40;99.90
25280;DHT22;13225;47.804;12.116;2023-08-06T07:47:37;17.50;99.90
25280;DHT22;13225;47.804;12.116;2023-08-06T07:50:03;17.20;99.90
25280;DHT22;13225;47.804;12.116;2023-08-06T07:52:29;17.20;99.90
25280;DHT22;13225;47.804;12.116;2023-08-06T07:54:54;17.00;99.90
25280;DHT22;13225;47.804;12.116;2023-08-06T07:57:20;16.80;99.90
25280;DHT22;13225;47.804;12.116;2023-08-06T07:59:45;16.50;99.90
25280;DHT22;13225;47.804;12.116;2023-08-06T08:02:11;16.20;99.90
25280;DHT22;13225;47.804;12.116;2023-08-06T08:04:36;15.90;99.90
25280;DHT22;13225;47.804;12.116;2023-08-06T08:07:02;15.90;99.90
25280;DHT22;13225;47.804;12.116;2023-08-06T08:09:28;15.90;99.90
25280;DHT22;13225;47.804;12.116;2023-08-06T08:11:53;15.80;99.90
25280;DHT22;13225;47.804;12.116;2023-08-06T08:14:19;15.90;99.90
25280;DHT22;13225;47.804;12.116;2023-08-06T08:16:45;16.10;99.90
25280;DHT22;13225;47.804;12.116;2023-08-06T08:19:10;16.00;99.90
25280;DHT22;13225;47.804;12.116;2023-08-06T08:21:36;16.00;99.90
25280;DHT22;13225;47.804;12.116;2023-08-06T08:24:03;16.00;99.90
25280;DHT22;13225;47.804;12.116;2023-08-06T08:26:29;15.90;99.90
25280;DHT22;13225;47.804;12.116;2023-08-06T08:28:54;16.10;99.90
25280;DHT22;13225;47.804;12.116;2023-08-06T08:31:20;16.10;99.90
25280;DHT22;13225;47.804;12.116;2023-08-06T08:33:46;16.10;99.90
25280;DHT22;13225;47.804;12.116;2023-08-06T08:36:11;16.20;99.90
25280;DHT22;13225;47.804;12.116;2023-08-06T08:38:37;16.30;99.90
25280;DHT22;13225;47.804;12.116;2023-08-06T08:41:02;16.20;99.90
25280;DHT22;13225;47.804;12.116;2023-08-06T08:43:29;16.30;99.90
25280;DHT22;13225;47.804;12.116;2023-08-06T08:45:55;16.50;99.90
25280;DHT22;13225;47.804;12.116;2023-08-06T08:48:21;16.50;99.90
25280;DHT22;13225;47.804;12.116;2023-08-06T08:50:49;16.70;99.90
25280;DHT22;13225;47.804;12.116;2023-08-06T08:53:16;16.80;99.90
25280;DHT22;13225;47.804;12.116;2023-08-06T08:55:44;16.80;99.90
25280;DHT22;13225;47.804;12.116;2023-08-06T08:58:12;16.70;99.90
25280;DHT22;13225;47.804;12.116;2023-08-06T09:00:39;16.80;99.90
25280;DHT22;13225;47.804;12.116;2023-08-06T09:03:06;16.70;99.90
25280;DHT22;13225;47.804;12.116;2023-08-06T09:05:32;16.70;99.90
25280;DHT22;13225;47.804;12.116;2023-08-06T09:08:02;16.70;99.90
25280;DHT22;13225;47.804;12.116;2023-08-06T09:10:29;16.60;99.90
25280;DHT22;13225;47.804;12.116;2023-08-06T09:12:58;16.60;99.90
25280;DHT22;13225;47.804;12.116;2023-08-06T09:15:27;16.50;99.90
25280;DHT22;13225;47.804;12.116;2023-08-06T09:17:53;16.50;99.90
25280;DHT22;13225;47.804;12.116;2023-08-06T09:20:19;16.50;99.90
25280;DHT22;13225;47.804;12.116;2023-08-06T09:22:45;16.60;99.90
25280;DHT22;13225;47.804;12.116;2023-08-06T09:25:20;16.70;99.90
25280;DHT22;13225;47.804;12.116;2023-08-06T09:27:46;16.80;99.90
25280;DHT22;13225;47.804;12.116;2023-08-06T09:30:29;16.80;99.90
25280;DHT22;13225;47.804;12.116;2023-08-06T09:32:55;17.10;99.90
25280;DHT22;13225;47.804;12.116;2023-08-06T09:35:21;17.20;99.90
25280;DHT22;13225;47.804;12.116;2023-08-06T09:37:47;17.50;99.90
25280;DHT22;13225;47.804;12.116;2023-08-06T09:40:27;17.70;99.90
25280;DHT22;13225;47.804;12.116;2023-08-06T09:42:53;17.70;99.90
25280;DHT22;13225;47.804;12.116;2023-08-06T09:45:18;17.60;99.90
25280;DHT22;13225;47.804;12.116;2023-08-06T09:47:44;17.20;99.90
25280;DHT22;13225;47.804;12.116;2023-08-06T09:50:19;17.10;99.90
25280;DHT22;13225;47.804;12.116;2023-08-06T09:52:47;17.10;99.90
25280;DHT22;13225;47.804;12.116;2023-08-06T09:55:14;17.10;99.90
25280;DHT22;13225;47.804;12.116;2023-08-06T09:57:40;17.20;99.90
25280;DHT22;13225;47.804;12.116;2023-08-06T10:00:09;17.20;99.90
25280;DHT22;13225;47.804;12.116;2023-08-06T10:02:37;17.30;99.90
25280;DHT22;13225;47.804;12.116;2023-08-06T10:05:03;17.20;99.90
25280;DHT22;13225;47.804;12.116;2023-08-06T10:07:30;17.20;99.90
25280;DHT22;13225;47.804;12.116;2023-08-06T10:09:56;17.20;99.90
25280;DHT22;13225;47.804;12.116;2023-08-06T10:12:22;17.40;99.90
25280;DHT22;13225;47.804;12.116;2023-08-06T10:14:51;17.50;99.90
25280;DHT22;13225;47.804;12.116;2023-08-06T10:17:19;17.40;99.90
25280;DHT22;13225;47.804;12.116;2023-08-06T10:19:46;17.60;99.90
25280;DHT22;13225;47.804;12.116;2023-08-06T10:22:14;17.70;99.90
25280;DHT22;13225;47.804;12.116;2023-08-06T10:24:54;17.80;99.90
25280;DHT22;13225;47.804;12.116;2023-08-06T10:27:21;18.10;99.90
25280;DHT22;13225;47.804;12.116;2023-08-06T10:29:47;18.10;99.90
25280;DHT22;13225;47.804;12.116;2023-08-06T10:32:13;18.20;99.90
25280;DHT22;13225;47.804;12.116;2023-08-06T10:34:59;17.60;99.90
25280;DHT22;13225;47.804;12.116;2023-08-06T10:37:36;17.40;99.90
25280;DHT22;13225;47.804;12.116;2023-08-06T10:40:02;17.40;99.90
25280;DHT22;13225;47.804;12.116;2023-08-06T10:42:29;17.80;99.90
25280;DHT22;13225;47.804;12.116;2023-08-06T10:45:14;17.90;99.90
25280;DHT22;13225;47.804;12.116;2023-08-06T10:47:41;17.80;99.90
25280;DHT22;13225;47.804;12.116;2023-08-06T10:50:15;17.60;99.90
25280;DHT22;13225;47.804;12.116;2023-08-06T10:52:45;17.60;99.90
25280;DHT22;13225;47.804;12.116;2023-08-06T10:55:12;17.50;99.90
25280;DHT22;13225;47.804;12.116;2023-08-06T10:57:38;17.80;99.90
25280;DHT22;13225;47.804;12.116;2023-08-06T11:00:07;17.70;99.90
25280;DHT22;13225;47.804;12.116;2023-08-06T11:02:34;17.60;99.90
25280;DHT22;13225;47.804;12.116;2023-08-06T11:05:08;17.70;99.90
25280;DHT22;13225;47.804;12.116;2023-08-06T11:07:37;17.90;99.90
25280;DHT22;13225;47.804;12.116;2023-08-06T11:10:08;17.80;99.90
25280;DHT22;13225;47.804;12.116;2023-08-06T11:12:34;17.90;99.90
25280;DHT22;13225;47.804;12.116;2023-08-06T11:15:01;17.70;99.90
25280;DHT22;13225;47.804;12.116;2023-08-06T11:17:28;17.70;99.90
25280;DHT22;13225;47.804;12.116;2023-08-06T11:19:54;17.80;99.90
25280;DHT22;13225;47.804;12.116;2023-08-06T11:22:23;17.90;99.90
25280;DHT22;13225;47.804;12.116;2023-08-06T11:24:48;17.80;99.90
25280;DHT22;13225;47.804;12.116;2023-08-06T11:27:15;17.70;99.90
25280;DHT22;13225;47.804;12.116;2023-08-06T11:29:42;17.70;99.90
25280;DHT22;13225;47.804;12.116;2023-08-06T11:32:08;17.80;99.90
25280;DHT22;13225;47.804;12.116;2023-08-06T11:34:35;18.00;99.90
25280;DHT22;13225;47.804;12.116;2023-08-06T11:37:02;18.20;99.90
25280;DHT22;13225;47.804;12.116;2023-08-06T11:39:28;18.10;99.90
25280;DHT22;13225;47.804;12.116;2023-08-06T11:41:54;17.90;99.90
25280;DHT22;13225;47.804;12.116;2023-08-06T11:44:20;17.50;99.90
25280;DHT22;13225;47.804;12.116;2023-08-06T11:46:53;17.20;99.90
25280;DHT22;13225;47.804;12.116;2023-08-06T11:49:21;17.20;99.90
25280;DHT22;13225;47.804;12.116;2023-08-06T11:52:10;17.30;99.90
25280;DHT22;13225;47.804;12.116;2023-08-06T11:54:36;17.30;99.90
25280;DHT22;13225;47.804;12.116;2023-08-06T11:57:08;17.50;99.90
25280;DHT22;13225;47.804;12.116;2023-08-06T11:59:34;17.40;99.90
25280;DHT22;13225;47.804;12.116;2023-08-06T12:02:08;17.40;99.90
25280;DHT22;13225;47.804;12.116;2023-08-06T12:05:01;17.60;99.90
25280;DHT22;13225;47.804;12.116;2023-08-06T12:07:29;17.50;99.90
25280;DHT22;13225;47.804;12.116;2023-08-06T12:09:55;17.40;99.90
25280;DHT22;13225;47.804;12.116;2023-08-06T12:12:21;17.60;99.90
25280;DHT22;13225;47.804;12.116;2023-08-06T12:14:46;18.10;99.90
25280;DHT22;13225;47.804;12.116;2023-08-06T12:17:12;18.00;99.90
25280;DHT22;13225;47.804;12.116;2023-08-06T12:19:37;18.10;99.90
25280;DHT22;13225;47.804;12.116;2023-08-06T12:22:03;18.30;99.90
25280;DHT22;13225;47.804;12.116;2023-08-06T12:24:29;18.10;99.90
25280;DHT22;13225;47.804;12.116;2023-08-06T12:26:57;18.00;99.90
25280;DHT22;13225;47.804;12.116;2023-08-06T12:29:23;17.90;99.90
25280;DHT22;13225;47.804;12.116;2023-08-06T12:31:49;17.90;99.90
25280;DHT22;13225;47.804;12.116;2023-08-06T12:34:14;17.90;99.90
25280;DHT22;13225;47.804;12.116;2023-08-06T12:36:40;17.70;99.90
25280;DHT22;13225;47.804;12.116;2023-08-06T12:39:05;18.20;99.90
25280;DHT22;13225;47.804;12.116;2023-08-06T12:41:31;17.60;99.90
25280;DHT22;13225;47.804;12.116;2023-08-06T12:43:57;18.30;99.90
25280;DHT22;13225;47.804;12.116;2023-08-06T12:46:22;18.40;99.90
25280;DHT22;13225;47.804;12.116;2023-08-06T12:48:48;18.70;99.90
25280;DHT22;13225;47.804;12.116;2023-08-06T12:51:14;19.40;99.90
25280;DHT22;13225;47.804;12.116;2023-08-06T12:53:39;19.60;99.90
25280;DHT22;13225;47.804;12.116;2023-08-06T12:56:05;19.10;99.90
25280;DHT22;13225;47.804;12.116;2023-08-06T12:58:31;19.00;99.90
25280;DHT22;13225;47.804;12.116;2023-08-06T13:00:56;19.00;99.90
25280;DHT22;13225;47.804;12.116;2023-08-06T13:03:22;18.70;99.90
25280;DHT22;13225;47.804;12.116;2023-08-06T13:05:47;18.60;99.90
25280;DHT22;13225;47.804;12.116;2023-08-06T13:08:13;19.40;99.90
25280;DHT22;13225;47.804;12.116;2023-08-06T13:10:39;20.10;99.90
25280;DHT22;13225;47.804;12.116;2023-08-06T13:13:04;20.30;99.90
25280;DHT22;13225;47.804;12.116;2023-08-06T13:15:30;20.10;99.90
25280;DHT22;13225;47.804;12.116;2023-08-06T13:17:56;20.20;99.90
25280;DHT22;13225;47.804;12.116;2023-08-06T13:20:21;20.30;99.90
25280;DHT22;13225;47.804;12.116;2023-08-06T13:22:48;19.40;99.90
25280;DHT22;13225;47.804;12.116;2023-08-06T13:25:16;19.20;99.90
25280;DHT22;13225;47.804;12.116;2023-08-06T13:27:42;19.00;99.90
25280;DHT22;13225;47.804;12.116;2023-08-06T13:30:09;19.00;99.90
25280;DHT22;13225;47.804;12.116;2023-08-06T13:32:35;18.70;99.90
25280;DHT22;13225;47.804;12.116;2023-08-06T13:35:03;18.60;99.90
25280;DHT22;13225;47.804;12.116;2023-08-06T13:37:29;18.70;99.90
25280;DHT22;13225;47.804;12.116;2023-08-06T13:39:55;18.60;99.90
25280;DHT22;13225;47.804;12.116;2023-08-06T13:42:20;19.00;99.90
25280;DHT22;13225;47.804;12.116;2023-08-06T13:44:46;18.90;99.90
25280;DHT22;13225;47.804;12.116;2023-08-06T13:47:11;18.40;99.90
25280;DHT22;13225;47.804;12.116;2023-08-06T13:49:37;18.00;99.90
25280;DHT22;13225;47.804;12.116;2023-08-06T13:52:03;17.70;99.90
25280;DHT22;13225;47.804;12.116;2023-08-06T13:54:29;17.50;99.90
25280;DHT22;13225;47.804;12.116;2023-08-06T13:56:55;17.50;99.90
25280;DHT22;13225;47.804;12.116;2023-08-06T13:59:20;17.30;99.90
25280;DHT22;13225;47.804;12.116;2023-08-06T14:01:46;17.20;99.90
25280;DHT22;13225;47.804;12.116;2023-08-06T14:04:13;16.90;99.90
25280;DHT22;13225;47.804;12.116;2023-08-06T14:06:38;16.80;99.90
25280;DHT22;13225;47.804;12.116;2023-08-06T14:09:04;16.80;99.90
25280;DHT22;13225;47.804;12.116;2023-08-06T14:11:30;16.50;99.90
25280;DHT22;13225;47.804;12.116;2023-08-06T14:13:55;16.70;99.90
25280;DHT22;13225;47.804;12.116;2023-08-06T14:16:21;16.50;99.90
25280;DHT22;13225;47.804;12.116;2023-08-06T14:18:47;16.50;99.90
25280;DHT22;13225;47.804;12.116;2023-08-06T14:21:13;16.60;99.90
25280;DHT22;13225;47.804;12.116;2023-08-06T14:23:39;16.40;99.90
25280;DHT22;13225;47.804;12.116;2023-08-06T14:26:07;16.30;99.90
25280;DHT22;13225;47.804;12.116;2023-08-06T14:28:33;16.20;99.90
25280;DHT22;13225;47.804;12.116;2023-08-06T14:30:58;15.90;99.90
25280;DHT22;13225;47.804;12.116;2023-08-06T14:33:24;15.90;99.90
25280;DHT22;13225;47.804;12.116;2023-08-06T14:35:50;15.80;99.90
25280;DHT22;13225;47.804;12.116;2023-08-06T14:38:16;16.00;99.90
25280;DHT22;13225;47.804;12.116;2023-08-06T14:40:43;16.10;99.90
25280;DHT22;13225;47.804;12.116;2023-08-06T14:43:09;16.10;99.90
25280;DHT22;13225;47.804;12.116;2023-08-06T14:45:38;16.00;99.90
25280;DHT22;13225;47.804;12.116;2023-08-06T14:48:04;16.00;99.90
25280;DHT22;13225;47.804;12.116;2023-08-06T14:50:30;16.00;99.90
25280;DHT22;13225;47.804;12.116;2023-08-06T14:52:55;16.10;99.90
25280;DHT22;13225;47.804;12.116;2023-08-06T14:55:25;16.20;99.90
25280;DHT22;13225;47.804;12.116;2023-08-06T14:57:51;16.40;99.90
25280;DHT22;13225;47.804;12.116;2023-08-06T15:00:17;16.40;99.90
25280;DHT22;13225;47.804;12.116;2023-08-06T15:02:43;16.30;99.90
25280;DHT22;13225;47.804;12.116;2023-08-06T15:05:09;16.10;99.90
25280;DHT22;13225;47.804;12.116;2023-08-06T15:07:35;16.30;99.90
25280;DHT22;13225;47.804;12.116;2023-08-06T15:10:01;16.30;99.90
25280;DHT22;13225;47.804;12.116;2023-08-06T15:12:28;16.30;99.90
25280;DHT22;13225;47.804;12.116;2023-08-06T15:14:53;16.20;99.90